Time;durP1;ratioP1;P1;durP2;ratioP2;P2;SDS_P1;SDS_P2;PMS_P1;PMS_P2;Temp;Humidity;BMP_temperature;BMP_pressure;BME280_temperature;BME280_humidity;BME280_pressure;Samples;Min_cycle;Max_cycle;Signal;HPM_P1;HPM_P2
2023/03/11 10:11:59;;;;;;;10.97;10.30;;;7.80;72.50;;;;;;5090928;27;20708;-81
2023/03/11 10:14:55;;;;;;;10.10;9.40;;;12.90;63.40;;;;;;5091092;28;20475;-82
2023/03/11 10:17:40;;;;;;;10.37;9.73;;;15.30;57.70;;;;;;5090889;28;20493;-81
2023/03/11 10:20:12;;;;;;;10.20;9.77;;;16.60;54.90;;;;;;5091083;28;20451;-82
2023/03/11 10:22:47;;;;;;;9.80;9.40;;;15.50;52.30;;;;;;5090827;28;20979;-80
2023/03/11 10:25:16;;;;;;;11.10;10.40;;;13.20;54.60;;;;;;5090255;28;20445;-81
2023/03/11 10:27:50;;;;;;;10.60;9.90;;;11.70;58.70;;;;;;5089894;28;20446;-78
2023/03/11 10:30:25;;;;;;;9.23;8.73;;;11.30;60.40;;;;;;5090980;28;20490;-79
2023/03/11 10:32:57;;;;;;;10.33;9.83;;;10.70;60.70;;;;;;5089873;28;20438;-81
2023/03/11 10:35:27;;;;;;;10.63;10.23;;;10.10;63.30;;;;;;5091011;28;20499;-81
2023/03/11 10:37:58;;;;;;;9.70;9.30;;;9.60;64.80;;;;;;5090700;28;20454;-81
2023/03/11 10:40:30;;;;;;;9.57;9.00;;;10.00;65.00;;;;;;5090316;28;20442;-81
2023/03/11 10:43:02;;;;;;;9.97;9.27;;;9.90;65.40;;;;;;5090274;28;20451;-80
2023/03/11 10:45:39;;;;;;;10.83;10.23;;;10.50;65.40;;;;;;5090134;28;20489;-80
2023/03/11 10:48:10;;;;;;;10.97;10.47;;;12.60;61.30;;;;;;5090024;28;20450;-81
2023/03/11 10:50:41;;;;;;;10.70;10.20;;;13.70;56.20;;;;;;5090052;28;20489;-82
2023/03/11 10:53:10;;;;;;;10.60;9.70;;;13.20;53.50;;;;;;5090446;28;20460;-80
2023/03/11 10:55:46;;;;;;;9.90;9.47;;;13.80;53.50;;;;;;5090481;28;20446;-83
2023/03/11 10:58:16;;;;;;;11.30;10.80;;;15.30;52.90;;;;;;5090422;28;20512;-82
2023/03/11 11:00:42;;;;;;;11.30;10.90;;;16.30;49.60;;;;;;5090418;28;20997;-82
2023/03/11 11:03:20;;;;;;;9.93;9.40;;;16.50;48.90;;;;;;5089851;28;20482;-81
2023/03/11 11:05:57;;;;;;;10.10;9.20;;;14.40;49.30;;;;;;5089647;28;20442;-81
2023/03/11 11:08:24;;;;;;;9.90;9.50;;;12.80;51.80;;;;;;5089982;28;20466;-81
2023/03/11 11:10:52;;;;;;;10.53;9.80;;;12.60;52.90;;;;;;5083477;28;20854;-80
2023/03/11 11:13:22;;;;;;;11.93;11.20;;;12.90;53.30;;;;;;5075673;28;20938;-81
2023/03/11 11:15:54;;;;;;;9.70;9.40;;;14.50;51.20;;;;;;5075441;28;20463;-80
2023/03/11 11:18:24;;;;;;;9.50;9.00;;;13.70;48.70;;;;;;5076014;28;20458;-81
2023/03/11 11:21:03;;;;;;;9.33;8.97;;;12.10;50.60;;;;;;5076287;28;20446;-81
2023/03/11 11:23:37;;;;;;;8.70;8.30;;;11.60;51.50;;;;;;5075511;28;20816;-80
2023/03/11 11:26:07;;;;;;;9.47;9.07;;;10.60;52.50;;;;;;5074981;28;20451;-81
2023/03/11 11:28:36;;;;;;;9.30;9.00;;;10.50;54.40;;;;;;5074888;28;20489;-82
2023/03/11 11:31:05;;;;;;;8.57;8.17;;;10.10;56.10;;;;;;5074987;28;20493;-81
2023/03/11 11:33:33;;;;;;;12.13;11.23;;;9.70;58.20;;;;;;5074503;28;20462;-81
2023/03/11 11:36:03;;;;;;;9.57;9.17;;;9.70;59.30;;;;;;5074433;28;20456;-81
2023/03/11 11:38:32;;;;;;;8.60;8.10;;;8.90;59.80;;;;;;5074536;28;20545;-81
2023/03/11 11:41:02;;;;;;;8.43;8.03;;;8.60;60.40;;;;;;5074061;28;20470;-82
2023/03/11 11:43:42;;;;;;;9.63;9.03;;;10.20;58.40;;;;;;5074584;28;20451;-82
2023/03/11 11:46:17;;;;;;;9.63;9.30;;;11.90;54.90;;;;;;5074457;28;20577;-82
2023/03/11 11:48:50;;;;;;;10.47;9.67;;;13.40;53.40;;;;;;5073881;28;20504;-81
2023/03/11 11:51:21;;;;;;;10.77;10.37;;;14.60;49.90;;;;;;5072427;28;20490;-81
2023/03/11 11:53:56;;;;;;;11.00;10.40;;;16.40;48.90;;;;;;5074511;28;20954;-81
2023/03/11 11:56:24;;;;;;;11.23;10.83;;;17.60;46.20;;;;;;5073967;28;20504;-83
2023/03/11 11:58:53;;;;;;;10.17;9.67;;;18.80;43.80;;;;;;5074853;28;20451;-83
2023/03/11 12:01:31;;;;;;;10.13;9.83;;;18.40;42.60;;;;;;5073530;28;20451;-82
2023/03/11 12:04:19;;;;;;;11.50;10.93;;;18.80;43.00;;;;;;5074337;28;20475;-83
2023/03/11 12:06:54;;;;;;;11.37;10.90;;;19.60;42.70;;;;;;5074393;28;20454;-81
2023/03/11 12:09:26;;;;;;;10.20;9.77;;;20.70;40.20;;;;;;5075521;28;20488;-84
2023/03/11 12:11:59;;;;;;;11.20;10.60;;;19.80;39.20;;;;;;5074847;28;20462;-83
2023/03/11 12:14:35;;;;;;;10.60;10.10;;;18.90;39.60;;;;;;5074633;28;20455;-83
2023/03/11 12:17:03;;;;;;;10.30;9.80;;;18.30;40.30;;;;;;5075694;28;20474;-83
2023/03/11 12:19:37;;;;;;;10.33;9.70;;;16.00;40.90;;;;;;5074735;28;20451;-82
2023/03/11 12:22:34;;;;;;;10.40;9.90;;;14.50;44.00;;;;;;5073822;28;20938;-83
2023/03/11 12:25:21;;;;;;;12.80;11.77;;;13.40;45.50;;;;;;5073946;28;20447;-84
2023/03/11 12:27:53;;;;;;;9.20;8.77;;;12.70;47.70;;;;;;5073961;28;20554;-82
2023/03/11 12:30:25;;;;;;;9.90;9.40;;;11.80;47.20;;;;;;5074055;28;20487;-83
2023/03/11 12:32:56;;;;;;;10.33;9.73;;;11.00;49.00;;;;;;5076052;28;20889;-84
2023/03/11 12:35:26;;;;;;;8.77;8.43;;;12.20;49.30;;;;;;5074937;28;20474;-82
2023/03/11 12:38:04;;;;;;;9.13;8.73;;;12.50;48.20;;;;;;5074765;28;20505;-82
2023/03/11 12:40:49;;;;;;;9.30;9.00;;;12.70;47.60;;;;;;5075086;28;20431;-81
2023/03/11 12:44:09;;;;;;;9.27;8.87;;;14.10;45.80;;;;;;5074242;28;20513;-82
2023/03/11 12:47:08;;;;;;;9.20;8.80;;;14.90;44.60;;;;;;5073226;28;20500;-84
2023/03/11 12:49:37;;;;;;;9.10;8.70;;;15.10;44.30;;;;;;5066780;28;20811;-82
2023/03/11 12:52:17;;;;;;;9.20;8.80;;;13.80;44.90;;;;;;5072039;28;20447;-82
2023/03/11 12:54:44;;;;;;;10.57;9.97;;;13.00;46.20;;;;;;5071570;28;20455;-83
2023/03/11 12:57:29;;;;;;;10.53;10.00;;;14.00;46.20;;;;;;5071642;28;20451;-81
2023/03/11 13:00:22;;;;;;;11.53;11.00;;;14.20;45.70;;;;;;5071915;28;20451;-82
2023/03/11 13:03:44;;;;;;;9.63;9.33;;;14.40;44.90;;;;;;5071399;28;20954;-81
2023/03/11 13:06:34;;;;;;;10.10;9.70;;;14.50;44.80;;;;;;5071262;28;20546;-81
2023/03/11 13:09:01;;;;;;;11.00;10.40;;;13.90;44.60;;;;;;5071247;28;20483;-82
2023/03/11 13:11:42;;;;;;;10.40;9.90;;;13.20;45.90;;;;;;5071251;28;20478;-82
2023/03/11 13:14:18;;;;;;;9.40;9.00;;;14.20;45.30;;;;;;5071922;28;20506;-82
2023/03/11 13:16:46;;;;;;;9.90;9.27;;;14.10;44.10;;;;;;5071210;28;20455;-81
2023/03/11 13:19:35;;;;;;;10.43;9.93;;;13.10;45.60;;;;;;5072619;28;20454;-80
2023/03/11 13:22:05;;;;;;;9.17;8.67;;;12.70;47.80;;;;;;5072962;28;20931;-82
2023/03/11 13:24:51;;;;;;;9.13;8.73;;;12.60;47.00;;;;;;5073581;28;20447;-83
2023/03/11 13:27:37;;;;;;;8.70;8.20;;;12.40;47.10;;;;;;5072788;28;20455;-82
2023/03/11 13:30:11;;;;;;;11.37;10.87;;;11.90;47.80;;;;;;5073012;28;20552;-80
2023/03/11 13:32:59;;;;;;;10.17;9.67;;;10.80;49.80;;;;;;5073145;28;20954;-80
2023/03/11 13:35:45;;;;;;;9.40;8.70;;;9.90;52.20;;;;;;5071160;28;20447;-82
2023/03/11 13:38:29;;;;;;;8.90;8.30;;;9.90;52.90;;;;;;5071985;28;20451;-83
2023/03/11 13:40:55;;;;;;;9.77;9.37;;;10.30;52.00;;;;;;5071913;28;20618;-81
2023/03/11 13:43:24;;;;;;;9.57;9.20;;;10.50;51.00;;;;;;5071722;28;20458;-82
2023/03/11 13:45:53;;;;;;;8.37;8.00;;;10.80;50.80;;;;;;5071540;28;20793;-83
2023/03/11 13:48:28;;;;;;;9.67;9.10;;;10.30;51.10;;;;;;5072678;28;20480;-82
2023/03/11 13:51:00;;;;;;;9.47;8.93;;;10.80;51.20;;;;;;5071684;28;20493;-81
2023/03/11 13:53:32;;;;;;;10.33;9.77;;;10.70;50.70;;;;;;5072926;28;20450;-83
2023/03/11 13:55:59;;;;;;;8.73;8.27;;;10.30;52.30;;;;;;5071823;28;20946;-82
2023/03/11 13:58:28;;;;;;;9.13;8.73;;;10.10;52.40;;;;;;5071949;28;20443;-81
2023/03/11 14:00:57;;;;;;;8.70;8.30;;;9.50;53.80;;;;;;5072380;28;20934;-81
2023/03/11 14:03:25;;;;;;;8.67;8.17;;;9.30;54.90;;;;;;5072648;28;20542;-81
2023/03/11 14:05:57;;;;;;;7.77;7.43;;;9.00;54.80;;;;;;5071516;28;20482;-82
2023/03/11 14:08:27;;;;;;;7.80;7.33;;;8.60;54.90;;;;;;5071383;28;20990;-80
2023/03/11 14:10:56;;;;;;;8.43;7.70;;;8.50;55.80;;;;;;5071515;28;20491;-82
2023/03/11 14:13:26;;;;;;;8.23;7.83;;;8.50;56.60;;;;;;5071644;28;20451;-79
2023/03/11 14:16:02;;;;;;;8.93;8.43;;;8.40;57.50;;;;;;5071099;28;20447;-81
2023/03/11 14:18:35;;;;;;;8.93;8.43;;;8.30;57.70;;;;;;5071437;28;20455;-81
2023/03/11 14:21:06;;;;;;;8.80;8.10;;;8.30;58.10;;;;;;5071879;28;20524;-80
2023/03/11 14:23:39;;;;;;;8.67;8.27;;;8.10;58.10;;;;;;5071209;28;20455;-79
2023/03/11 14:26:14;;;;;;;8.73;8.10;;;8.20;58.90;;;;;;5072250;28;20451;-80
2023/03/11 14:28:43;;;;;;;9.13;8.73;;;8.10;59.20;;;;;;5071694;28;20447;-80
2023/03/11 14:31:28;;;;;;;8.67;8.17;;;8.10;59.00;;;;;;5071847;28;20490;-80
2023/03/11 14:33:57;;;;;;;8.77;8.33;;;7.90;59.00;;;;;;5072225;28;20504;-80
2023/03/11 14:36:24;;;;;;;8.20;7.80;;;7.90;59.60;;;;;;5072818;28;20454;-82
2023/03/11 14:38:51;;;;;;;8.40;8.00;;;7.80;59.60;;;;;;5073794;28;20447;-80
2023/03/11 14:41:19;;;;;;;8.30;7.80;;;8.00;60.70;;;;;;5072542;28;20516;-80
2023/03/11 14:43:51;;;;;;;9.67;9.17;;;8.00;60.70;;;;;;5071693;28;20473;-80
2023/03/11 14:46:23;;;;;;;9.23;8.80;;;7.80;60.10;;;;;;5073801;28;20442;-79
2023/03/11 14:48:50;;;;;;;9.13;8.73;;;8.00;61.40;;;;;;5076263;28;20459;-80
2023/03/11 14:51:21;;;;;;;8.10;7.77;;;8.20;60.40;;;;;;5076807;28;20486;-81
2023/03/11 14:53:57;;;;;;;9.23;8.50;;;8.60;60.40;;;;;;5075416;28;20590;-81
2023/03/11 14:56:27;;;;;;;9.23;8.82;;;8.80;59.70;;;;;;5074317;28;20959;-79
2023/03/11 14:59:03;;;;;;;9.03;8.47;;;9.00;59.10;;;;;;5075861;28;20200;-80
2023/03/11 15:01:33;;;;;;;8.30;8.00;;;9.40;59.40;;;;;;5075257;28;20455;-82
2023/03/11 15:04:05;;;;;;;8.83;8.43;;;9.40;58.40;;;;;;5075927;28;20861;-79
2023/03/11 15:06:33;;;;;;;9.93;9.33;;;9.10;57.90;;;;;;5075782;28;20450;-80
2023/03/11 15:09:03;;;;;;;8.50;8.10;;;8.90;59.10;;;;;;5074367;28;20479;-79
2023/03/11 15:11:43;;;;;;;8.30;7.80;;;8.60;59.40;;;;;;5075011;28;20582;-80
2023/03/11 15:14:19;;;;;;;9.10;8.40;;;8.70;59.90;;;;;;5075549;28;20511;-81
2023/03/11 15:16:45;;;;;;;9.80;9.30;;;8.80;59.80;;;;;;5075062;28;20970;-79
2023/03/11 15:19:24;;;;;;;9.80;9.30;;;8.70;60.00;;;;;;5074937;28;20463;-80
2023/03/11 15:21:53;;;;;;;9.57;9.07;;;8.90;60.70;;;;;;5072802;28;20443;-80
2023/03/11 15:24:22;;;;;;;9.33;8.83;;;8.80;60.70;;;;;;5075079;28;20443;-80
2023/03/11 15:26:56;;;;;;;9.37;9.03;;;8.80;60.70;;;;;;5074406;28;20459;-80
2023/03/11 15:29:24;;;;;;;10.97;10.47;;;8.90;60.90;;;;;;5074536;28;20442;-81
2023/03/11 15:31:56;;;;;;;9.40;9.00;;;8.80;60.60;;;;;;5076332;28;20487;-80
2023/03/11 15:34:27;;;;;;;9.90;9.27;;;8.70;61.30;;;;;;5074555;28;20939;-83
2023/03/11 15:37:05;;;;;;;10.10;9.67;;;8.50;62.10;;;;;;5075297;28;20458;-81
2023/03/11 15:39:44;;;;;;;9.77;9.37;;;8.50;62.10;;;;;;5075776;28;20682;-81
2023/03/11 15:42:18;;;;;;;8.33;7.90;;;8.30;62.00;;;;;;5074643;28;20950;-81
2023/03/11 15:45:04;;;;;;;9.57;9.07;;;8.40;63.30;;;;;;5074717;28;20450;-80
2023/03/11 15:47:34;;;;;;;10.13;9.60;;;8.50;62.80;;;;;;5071615;28;20458;-80
2023/03/11 15:50:13;;;;;;;9.67;8.97;;;8.30;62.80;;;;;;5074420;28;20905;-79
2023/03/11 15:52:39;;;;;;;10.00;9.27;;;8.30;64.00;;;;;;5076192;28;20487;-80
2023/03/11 15:55:08;;;;;;;9.53;9.07;;;8.30;64.00;;;;;;5065193;28;20468;-79
2023/03/11 15:57:36;;;;;;;9.57;8.77;;;8.30;64.60;;;;;;5061766;28;20459;-80
2023/03/11 16:00:04;;;;;;;10.25;9.50;;;8.30;64.30;;;;;;5053569;28;20452;-79
2023/03/11 16:02:32;;;;;;;11.60;10.57;;;8.10;64.80;;;;;;5052241;28;20286;-79
2023/03/11 16:05:00;;;;;;;9.90;9.20;;;7.90;64.30;;;;;;5054184;28;20463;-79
2023/03/11 16:07:27;;;;;;;9.60;9.20;;;7.80;65.30;;;;;;5054043;28;20468;-79
2023/03/11 16:09:54;;;;;;;9.17;8.57;;;7.70;66.20;;;;;;5054261;28;20480;-79
2023/03/11 16:12:22;;;;;;;11.47;10.50;;;7.60;66.00;;;;;;5054151;28;20542;-80
2023/03/11 16:14:51;;;;;;;9.00;8.60;;;7.40;66.60;;;;;;5053149;28;20455;-80
2023/03/11 16:17:18;;;;;;;9.70;9.13;;;7.30;68.10;;;;;;5053190;28;20440;-81
2023/03/11 16:19:45;;;;;;;9.50;8.90;;;7.20;69.10;;;;;;5052805;28;20460;-80
2023/03/11 16:22:17;;;;;;;9.30;8.80;;;7.10;69.30;;;;;;5052858;28;20456;-80
2023/03/11 16:24:44;;;;;;;9.47;8.70;;;7.10;70.90;;;;;;5052490;28;20453;-79
2023/03/11 16:27:14;;;;;;;9.00;8.50;;;7.00;70.50;;;;;;5052114;28;20448;-80
2023/03/11 16:29:41;;;;;;;9.33;8.70;;;6.90;70.90;;;;;;5052643;28;20451;-80
2023/03/11 16:32:10;;;;;;;10.17;9.67;;;6.90;71.00;;;;;;5053050;28;20488;-79
2023/03/11 16:34:37;;;;;;;9.50;9.10;;;6.80;70.80;;;;;;5053461;28;20451;-79
2023/03/11 16:37:04;;;;;;;11.03;9.90;;;6.90;71.40;;;;;;5054257;28;20459;-80
2023/03/11 16:39:31;;;;;;;9.30;8.77;;;6.80;71.20;;;;;;5053800;28;20456;-80
2023/03/11 16:41:58;;;;;;;9.20;8.80;;;6.70;70.70;;;;;;5053461;28;20444;-81
2023/03/11 16:44:24;;;;;;;9.37;8.70;;;6.60;70.60;;;;;;5053433;28;20440;-80
2023/03/11 16:46:51;;;;;;;9.63;9.00;;;6.60;71.60;;;;;;5052992;28;20458;-81
2023/03/11 16:49:19;;;;;;;8.10;7.50;;;6.60;71.70;;;;;;5054049;28;20991;-81
2023/03/11 16:51:46;;;;;;;9.90;9.30;;;6.50;72.20;;;;;;5052960;28;20483;-81
2023/03/11 16:54:13;;;;;;;9.00;8.50;;;6.50;72.50;;;;;;5053061;28;20482;-80
2023/03/11 16:56:40;;;;;;;8.07;7.77;;;6.40;72.70;;;;;;5054136;28;20870;-82
2023/03/11 16:59:07;;;;;;;10.93;10.23;;;6.40;73.00;;;;;;5053434;28;20451;-80
2023/03/11 17:01:37;;;;;;;9.70;9.00;;;6.30;73.10;;;;;;5053982;28;20452;-81
2023/03/11 17:04:04;;;;;;;9.47;9.07;;;6.30;73.10;;;;;;5051348;28;20467;-80
2023/03/11 17:06:32;;;;;;;9.27;8.67;;;6.30;72.80;;;;;;5051746;28;20440;-80
2023/03/11 17:08:59;;;;;;;9.10;8.60;;;6.30;73.30;;;;;;5052313;28;20475;-81
2023/03/11 17:11:28;;;;;;;8.73;8.23;;;6.20;73.20;;;;;;5052530;28;20483;-81
2023/03/11 17:13:55;;;;;;;8.37;7.83;;;6.10;74.00;;;;;;5052244;28;20808;-80
2023/03/11 17:16:22;;;;;;;9.47;8.57;;;6.10;75.10;;;;;;5052430;28;20458;-81
2023/03/11 17:18:49;;;;;;;8.50;8.00;;;6.20;75.50;;;;;;5051757;28;20680;-81
2023/03/11 17:21:16;;;;;;;10.80;10.10;;;6.10;75.20;;;;;;5051830;28;20563;-80
2023/03/11 17:23:44;;;;;;;10.20;9.60;;;6.10;76.30;;;;;;5051516;28;20455;-80
2023/03/11 17:26:13;;;;;;;9.83;9.10;;;6.00;76.80;;;;;;5052523;28;20961;-81
2023/03/11 17:28:43;;;;;;;11.00;9.60;;;5.90;77.60;;;;;;5051966;28;20542;-81
2023/03/11 17:31:14;;;;;;;10.33;9.57;;;5.90;78.60;;;;;;5052308;28;20512;-80
2023/03/11 17:33:41;;;;;;;12.07;10.97;;;5.90;79.60;;;;;;5051725;28;20448;-81
2023/03/11 17:36:10;;;;;;;11.13;10.20;;;5.80;80.90;;;;;;5051820;28;20462;-81
2023/03/11 17:38:37;;;;;;;10.40;9.60;;;5.80;82.00;;;;;;5052139;28;20456;-80
2023/03/11 17:41:08;;;;;;;9.03;8.43;;;5.60;82.00;;;;;;5052031;28;20447;-80
2023/03/11 17:43:35;;;;;;;8.87;8.47;;;5.50;82.90;;;;;;5051875;28;20477;-80
2023/03/11 17:46:01;;;;;;;10.27;8.93;;;5.40;84.00;;;;;;5051941;28;20471;-81
2023/03/11 17:48:31;;;;;;;10.20;9.50;;;5.30;85.20;;;;;;5051702;28;20446;-81
2023/03/11 17:51:03;;;;;;;9.57;8.80;;;5.30;85.60;;;;;;5051679;28;20460;-80
2023/03/11 17:53:30;;;;;;;9.33;8.83;;;5.10;86.30;;;;;;5051587;28;20509;-81
2023/03/11 17:55:58;;;;;;;10.33;9.57;;;5.10;87.00;;;;;;5051777;28;20487;-81
